sensor_id;sensor_type;location;lat;lon;timestamp;P1;durP1;ratioP1;P2;durP2;ratioP2
27225;SDS011;14732;51.074;3.788;2022-10-22T00:01:33;10.23;;;1.80;;
27225;SDS011;14732;51.074;3.788;2022-10-22T00:03:59;5.75;;;1.77;;
27225;SDS011;14732;51.074;3.788;2022-10-22T00:06:25;6.93;;;1.58;;
27225;SDS011;14732;51.074;3.788;2022-10-22T00:08:51;6.88;;;1.63;;
27225;SDS011;14732;51.074;3.788;2022-10-22T00:11:17;12.50;;;2.25;;
27225;SDS011;14732;51.074;3.788;2022-10-22T00:13:44;8.90;;;1.75;;
27225;SDS011;14732;51.074;3.788;2022-10-22T00:16:10;10.88;;;1.67;;
27225;SDS011;14732;51.074;3.788;2022-10-22T00:18:36;7.10;;;1.60;;
27225;SDS011;14732;51.074;3.788;2022-10-22T00:21:03;14.20;;;2.03;;
27225;SDS011;14732;51.074;3.788;2022-10-22T00:23:30;11.95;;;2.20;;
27225;SDS011;14732;51.074;3.788;2022-10-22T00:25:55;10.60;;;2.10;;
27225;SDS011;14732;51.074;3.788;2022-10-22T00:28:21;10.00;;;1.90;;
27225;SDS011;14732;51.074;3.788;2022-10-22T00:30:47;9.27;;;2.20;;
27225;SDS011;14732;51.074;3.788;2022-10-22T00:33:19;7.90;;;2.00;;
27225;SDS011;14732;51.074;3.788;2022-10-22T00:35:44;7.80;;;1.75;;
27225;SDS011;14732;51.074;3.788;2022-10-22T00:38:11;16.13;;;2.15;;
27225;SDS011;14732;51.074;3.788;2022-10-22T00:40:37;8.30;;;1.95;;
27225;SDS011;14732;51.074;3.788;2022-10-22T00:43:02;14.38;;;1.60;;
27225;SDS011;14732;51.074;3.788;2022-10-22T00:45:28;11.20;;;2.08;;
27225;SDS011;14732;51.074;3.788;2022-10-22T00:53:10;12.95;;;1.63;;
27225;SDS011;14732;51.074;3.788;2022-10-22T00:55:39;10.15;;;1.92;;
27225;SDS011;14732;51.074;3.788;2022-10-22T00:58:07;9.60;;;1.90;;
27225;SDS011;14732;51.074;3.788;2022-10-22T01:00:34;6.35;;;1.70;;
27225;SDS011;14732;51.074;3.788;2022-10-22T01:02:59;12.48;;;1.60;;
27225;SDS011;14732;51.074;3.788;2022-10-22T01:05:29;8.52;;;1.80;;
27225;SDS011;14732;51.074;3.788;2022-10-22T01:07:57;8.52;;;1.90;;
27225;SDS011;14732;51.074;3.788;2022-10-22T01:23:34;12.63;;;1.90;;
27225;SDS011;14732;51.074;3.788;2022-10-22T01:26:05;8.45;;;2.13;;
27225;SDS011;14732;51.074;3.788;2022-10-22T01:31:20;8.35;;;1.77;;
27225;SDS011;14732;51.074;3.788;2022-10-22T01:33:48;6.88;;;1.80;;
27225;SDS011;14732;51.074;3.788;2022-10-22T01:36:17;7.78;;;1.83;;
27225;SDS011;14732;51.074;3.788;2022-10-22T01:38:44;8.45;;;1.73;;
27225;SDS011;14732;51.074;3.788;2022-10-22T01:41:11;12.05;;;2.25;;
27225;SDS011;14732;51.074;3.788;2022-10-22T01:43:37;6.82;;;2.03;;
27225;SDS011;14732;51.074;3.788;2022-10-22T01:46:03;8.55;;;1.60;;
27225;SDS011;14732;51.074;3.788;2022-10-22T01:48:33;10.85;;;1.60;;
27225;SDS011;14732;51.074;3.788;2022-10-22T01:53:52;9.35;;;2.20;;
27225;SDS011;14732;51.074;3.788;2022-10-22T02:07:19;9.20;;;1.70;;
27225;SDS011;14732;51.074;3.788;2022-10-22T02:09:47;12.48;;;1.75;;
27225;SDS011;14732;51.074;3.788;2022-10-22T02:12:15;8.23;;;1.80;;
27225;SDS011;14732;51.074;3.788;2022-10-22T02:14:42;12.75;;;1.90;;
27225;SDS011;14732;51.074;3.788;2022-10-22T02:17:10;11.00;;;1.80;;
27225;SDS011;14732;51.074;3.788;2022-10-22T02:19:41;9.20;;;1.70;;
27225;SDS011;14732;51.074;3.788;2022-10-22T02:22:11;11.35;;;1.80;;
27225;SDS011;14732;51.074;3.788;2022-10-22T02:24:37;7.30;;;1.92;;
27225;SDS011;14732;51.074;3.788;2022-10-22T02:32:17;11.20;;;2.08;;
27225;SDS011;14732;51.074;3.788;2022-10-22T02:34:47;8.68;;;1.63;;
27225;SDS011;14732;51.074;3.788;2022-10-22T02:37:14;9.23;;;1.90;;
27225;SDS011;14732;51.074;3.788;2022-10-22T02:39:42;16.75;;;1.95;;
27225;SDS011;14732;51.074;3.788;2022-10-22T02:42:09;8.75;;;1.95;;
27225;SDS011;14732;51.074;3.788;2022-10-22T02:44:36;13.73;;;1.80;;
27225;SDS011;14732;51.074;3.788;2022-10-22T02:47:02;8.55;;;1.60;;
27225;SDS011;14732;51.074;3.788;2022-10-22T02:49:28;7.43;;;1.70;;
27225;SDS011;14732;51.074;3.788;2022-10-22T02:51:54;10.10;;;1.60;;
27225;SDS011;14732;51.074;3.788;2022-10-22T02:54:20;12.23;;;2.03;;
27225;SDS011;14732;51.074;3.788;2022-10-22T02:56:45;11.00;;;1.83;;
27225;SDS011;14732;51.074;3.788;2022-10-22T02:59:11;9.48;;;1.88;;
27225;SDS011;14732;51.074;3.788;2022-10-22T03:01:37;9.48;;;1.55;;
27225;SDS011;14732;51.074;3.788;2022-10-22T03:04:02;8.95;;;1.85;;
27225;SDS011;14732;51.074;3.788;2022-10-22T03:06:29;9.43;;;1.52;;
27225;SDS011;14732;51.074;3.788;2022-10-22T03:08:54;10.00;;;2.00;;
27225;SDS011;14732;51.074;3.788;2022-10-22T03:11:20;7.53;;;1.58;;
27225;SDS011;14732;51.074;3.788;2022-10-22T03:13:46;11.90;;;1.90;;
27225;SDS011;14732;51.074;3.788;2022-10-22T03:16:11;12.52;;;1.88;;
27225;SDS011;14732;51.074;3.788;2022-10-22T03:18:37;10.40;;;1.88;;
27225;SDS011;14732;51.074;3.788;2022-10-22T03:21:12;12.77;;;1.90;;
27225;SDS011;14732;51.074;3.788;2022-10-22T03:23:43;8.85;;;1.60;;
27225;SDS011;14732;51.074;3.788;2022-10-22T03:26:09;7.18;;;1.45;;
27225;SDS011;14732;51.074;3.788;2022-10-22T03:28:37;11.85;;;2.00;;
27225;SDS011;14732;51.074;3.788;2022-10-22T03:31:04;8.13;;;1.58;;
27225;SDS011;14732;51.074;3.788;2022-10-22T03:33:30;12.10;;;1.50;;
27225;SDS011;14732;51.074;3.788;2022-10-22T03:35:56;11.00;;;1.60;;
27225;SDS011;14732;51.074;3.788;2022-10-22T03:38:22;10.10;;;1.58;;
27225;SDS011;14732;51.074;3.788;2022-10-22T03:40:48;12.30;;;1.73;;
27225;SDS011;14732;51.074;3.788;2022-10-22T03:43:14;15.70;;;1.80;;
27225;SDS011;14732;51.074;3.788;2022-10-22T03:45:40;11.73;;;1.92;;
27225;SDS011;14732;51.074;3.788;2022-10-22T03:48:06;12.55;;;1.80;;
27225;SDS011;14732;51.074;3.788;2022-10-22T03:50:32;9.73;;;1.50;;
27225;SDS011;14732;51.074;3.788;2022-10-22T03:52:58;10.93;;;1.75;;
27225;SDS011;14732;51.074;3.788;2022-10-22T03:55:23;12.60;;;1.80;;
27225;SDS011;14732;51.074;3.788;2022-10-22T03:57:49;13.18;;;2.03;;
27225;SDS011;14732;51.074;3.788;2022-10-22T04:00:15;10.02;;;1.50;;
27225;SDS011;14732;51.074;3.788;2022-10-22T04:02:41;12.48;;;1.60;;
27225;SDS011;14732;51.074;3.788;2022-10-22T04:05:06;10.90;;;1.73;;
27225;SDS011;14732;51.074;3.788;2022-10-22T04:07:32;9.73;;;1.52;;
27225;SDS011;14732;51.074;3.788;2022-10-22T04:09:58;8.15;;;1.52;;
27225;SDS011;14732;51.074;3.788;2022-10-22T04:12:23;10.13;;;1.52;;
27225;SDS011;14732;51.074;3.788;2022-10-22T04:14:49;11.32;;;1.77;;
27225;SDS011;14732;51.074;3.788;2022-10-22T04:17:15;7.85;;;1.63;;
27225;SDS011;14732;51.074;3.788;2022-10-22T04:19:41;11.18;;;1.60;;
27225;SDS011;14732;51.074;3.788;2022-10-22T04:22:06;5.90;;;1.40;;
27225;SDS011;14732;51.074;3.788;2022-10-22T04:24:32;9.85;;;1.40;;
27225;SDS011;14732;51.074;3.788;2022-10-22T04:26:58;11.98;;;1.50;;
27225;SDS011;14732;51.074;3.788;2022-10-22T04:29:23;14.23;;;2.00;;
27225;SDS011;14732;51.074;3.788;2022-10-22T04:31:49;9.23;;;1.70;;
27225;SDS011;14732;51.074;3.788;2022-10-22T04:34:15;11.02;;;1.75;;
27225;SDS011;14732;51.074;3.788;2022-10-22T04:36:41;7.78;;;1.48;;
27225;SDS011;14732;51.074;3.788;2022-10-22T04:39:07;11.43;;;1.75;;
27225;SDS011;14732;51.074;3.788;2022-10-22T04:41:37;15.15;;;1.70;;
27225;SDS011;14732;51.074;3.788;2022-10-22T04:44:03;8.10;;;1.83;;
27225;SDS011;14732;51.074;3.788;2022-10-22T04:46:31;7.10;;;1.77;;
27225;SDS011;14732;51.074;3.788;2022-10-22T04:48:58;9.88;;;1.45;;
27225;SDS011;14732;51.074;3.788;2022-10-22T04:51:24;19.27;;;2.00;;
27225;SDS011;14732;51.074;3.788;2022-10-22T04:53:51;7.68;;;1.50;;
27225;SDS011;14732;51.074;3.788;2022-10-22T04:56:18;10.80;;;1.58;;
27225;SDS011;14732;51.074;3.788;2022-10-22T04:58:53;12.73;;;1.95;;
27225;SDS011;14732;51.074;3.788;2022-10-22T05:01:28;7.18;;;1.52;;
27225;SDS011;14732;51.074;3.788;2022-10-22T05:03:59;8.35;;;1.33;;
27225;SDS011;14732;51.074;3.788;2022-10-22T05:06:26;6.63;;;1.50;;
27225;SDS011;14732;51.074;3.788;2022-10-22T05:08:54;13.30;;;2.00;;
27225;SDS011;14732;51.074;3.788;2022-10-22T05:11:26;11.90;;;1.48;;
27225;SDS011;14732;51.074;3.788;2022-10-22T05:13:58;8.93;;;1.60;;
27225;SDS011;14732;51.074;3.788;2022-10-22T05:16:25;10.52;;;1.60;;
27225;SDS011;14732;51.074;3.788;2022-10-22T05:18:52;8.70;;;1.80;;
27225;SDS011;14732;51.074;3.788;2022-10-22T05:21:18;12.15;;;1.70;;
27225;SDS011;14732;51.074;3.788;2022-10-22T05:23:45;11.18;;;1.27;;
27225;SDS011;14732;51.074;3.788;2022-10-22T05:26:13;9.20;;;1.42;;
27225;SDS011;14732;51.074;3.788;2022-10-22T05:28:41;7.90;;;1.63;;
27225;SDS011;14732;51.074;3.788;2022-10-22T05:31:07;6.25;;;1.80;;
27225;SDS011;14732;51.074;3.788;2022-10-22T05:33:35;11.48;;;1.48;;
27225;SDS011;14732;51.074;3.788;2022-10-22T05:36:02;6.18;;;1.20;;
27225;SDS011;14732;51.074;3.788;2022-10-22T05:38:30;8.43;;;1.60;;
27225;SDS011;14732;51.074;3.788;2022-10-22T05:40:58;8.45;;;1.52;;
27225;SDS011;14732;51.074;3.788;2022-10-22T05:43:28;8.27;;;1.30;;
27225;SDS011;14732;51.074;3.788;2022-10-22T05:45:54;8.98;;;1.63;;
27225;SDS011;14732;51.074;3.788;2022-10-22T05:48:20;10.63;;;2.30;;
27225;SDS011;14732;51.074;3.788;2022-10-22T05:50:46;13.07;;;1.73;;
27225;SDS011;14732;51.074;3.788;2022-10-22T05:53:15;11.40;;;1.77;;
27225;SDS011;14732;51.074;3.788;2022-10-22T05:55:42;9.75;;;1.38;;
27225;SDS011;14732;51.074;3.788;2022-10-22T05:58:08;6.70;;;1.27;;
27225;SDS011;14732;51.074;3.788;2022-10-22T06:00:35;11.23;;;1.60;;
27225;SDS011;14732;51.074;3.788;2022-10-22T06:03:01;7.45;;;1.40;;
27225;SDS011;14732;51.074;3.788;2022-10-22T06:05:27;9.13;;;1.88;;
27225;SDS011;14732;51.074;3.788;2022-10-22T06:07:52;6.80;;;1.30;;
27225;SDS011;14732;51.074;3.788;2022-10-22T06:10:20;6.50;;;1.35;;
27225;SDS011;14732;51.074;3.788;2022-10-22T06:12:46;10.13;;;1.73;;
27225;SDS011;14732;51.074;3.788;2022-10-22T06:15:13;11.20;;;1.60;;
27225;SDS011;14732;51.074;3.788;2022-10-22T06:17:40;12.98;;;1.83;;
27225;SDS011;14732;51.074;3.788;2022-10-22T06:20:09;10.32;;;1.55;;
27225;SDS011;14732;51.074;3.788;2022-10-22T06:22:35;9.50;;;1.63;;
27225;SDS011;14732;51.074;3.788;2022-10-22T06:25:01;15.82;;;1.67;;
27225;SDS011;14732;51.074;3.788;2022-10-22T06:27:26;12.40;;;1.67;;
27225;SDS011;14732;51.074;3.788;2022-10-22T06:29:52;10.02;;;1.40;;
27225;SDS011;14732;51.074;3.788;2022-10-22T06:32:17;12.48;;;1.40;;
27225;SDS011;14732;51.074;3.788;2022-10-22T06:34:43;8.98;;;1.52;;
27225;SDS011;14732;51.074;3.788;2022-10-22T06:37:10;14.75;;;2.10;;
27225;SDS011;14732;51.074;3.788;2022-10-22T06:39:37;15.15;;;2.22;;
27225;SDS011;14732;51.074;3.788;2022-10-22T06:42:03;9.38;;;1.50;;
27225;SDS011;14732;51.074;3.788;2022-10-22T06:44:29;7.95;;;1.50;;
27225;SDS011;14732;51.074;3.788;2022-10-22T06:46:54;11.65;;;1.50;;
27225;SDS011;14732;51.074;3.788;2022-10-22T06:49:20;9.00;;;1.45;;
27225;SDS011;14732;51.074;3.788;2022-10-22T06:51:49;11.43;;;1.40;;
27225;SDS011;14732;51.074;3.788;2022-10-22T06:54:16;9.18;;;1.75;;
27225;SDS011;14732;51.074;3.788;2022-10-22T06:56:42;7.57;;;1.30;;
27225;SDS011;14732;51.074;3.788;2022-10-22T06:59:08;6.35;;;1.27;;
27225;SDS011;14732;51.074;3.788;2022-10-22T07:01:34;12.13;;;1.83;;
27225;SDS011;14732;51.074;3.788;2022-10-22T07:04:00;11.57;;;1.77;;
27225;SDS011;14732;51.074;3.788;2022-10-22T07:06:27;12.43;;;1.38;;
27225;SDS011;14732;51.074;3.788;2022-10-22T07:08:56;8.68;;;1.42;;
27225;SDS011;14732;51.074;3.788;2022-10-22T07:11:25;5.60;;;1.02;;
27225;SDS011;14732;51.074;3.788;2022-10-22T07:13:57;8.07;;;1.15;;
27225;SDS011;14732;51.074;3.788;2022-10-22T07:16:24;10.05;;;1.42;;
27225;SDS011;14732;51.074;3.788;2022-10-22T07:18:49;7.38;;;1.15;;
27225;SDS011;14732;51.074;3.788;2022-10-22T07:21:16;9.82;;;1.30;;
27225;SDS011;14732;51.074;3.788;2022-10-22T07:23:44;9.55;;;1.30;;
27225;SDS011;14732;51.074;3.788;2022-10-22T07:26:10;10.98;;;2.00;;
27225;SDS011;14732;51.074;3.788;2022-10-22T07:28:38;9.25;;;1.40;;
27225;SDS011;14732;51.074;3.788;2022-10-22T07:31:05;9.65;;;1.60;;
27225;SDS011;14732;51.074;3.788;2022-10-22T07:33:34;8.57;;;1.23;;
27225;SDS011;14732;51.074;3.788;2022-10-22T07:36:02;7.63;;;1.40;;
27225;SDS011;14732;51.074;3.788;2022-10-22T07:38:29;10.32;;;1.70;;
27225;SDS011;14732;51.074;3.788;2022-10-22T07:40:56;11.40;;;1.83;;
27225;SDS011;14732;51.074;3.788;2022-10-22T07:43:22;10.10;;;1.80;;
27225;SDS011;14732;51.074;3.788;2022-10-22T07:45:48;5.70;;;1.23;;
27225;SDS011;14732;51.074;3.788;2022-10-22T07:48:14;9.57;;;1.45;;
27225;SDS011;14732;51.074;3.788;2022-10-22T07:50:39;9.40;;;1.38;;
27225;SDS011;14732;51.074;3.788;2022-10-22T07:53:05;5.88;;;1.23;;
27225;SDS011;14732;51.074;3.788;2022-10-22T07:55:31;12.10;;;1.50;;
27225;SDS011;14732;51.074;3.788;2022-10-22T07:57:57;8.73;;;1.40;;
27225;SDS011;14732;51.074;3.788;2022-10-22T08:00:23;9.20;;;1.52;;
27225;SDS011;14732;51.074;3.788;2022-10-22T08:02:48;8.95;;;1.60;;
27225;SDS011;14732;51.074;3.788;2022-10-22T08:05:14;10.75;;;1.50;;
27225;SDS011;14732;51.074;3.788;2022-10-22T08:07:40;6.57;;;1.30;;
27225;SDS011;14732;51.074;3.788;2022-10-22T08:10:06;9.05;;;1.45;;
27225;SDS011;14732;51.074;3.788;2022-10-22T08:12:34;9.25;;;1.60;;
27225;SDS011;14732;51.074;3.788;2022-10-22T08:15:00;8.48;;;1.42;;
27225;SDS011;14732;51.074;3.788;2022-10-22T08:17:26;8.73;;;1.58;;
27225;SDS011;14732;51.074;3.788;2022-10-22T08:19:52;13.27;;;1.35;;
27225;SDS011;14732;51.074;3.788;2022-10-22T08:22:18;7.55;;;1.27;;
27225;SDS011;14732;51.074;3.788;2022-10-22T08:24:44;7.95;;;1.65;;
27225;SDS011;14732;51.074;3.788;2022-10-22T08:27:10;10.93;;;1.50;;
27225;SDS011;14732;51.074;3.788;2022-10-22T08:29:36;6.95;;;1.23;;
27225;SDS011;14732;51.074;3.788;2022-10-22T08:32:02;8.48;;;1.33;;
27225;SDS011;14732;51.074;3.788;2022-10-22T08:34:28;12.43;;;1.50;;
27225;SDS011;14732;51.074;3.788;2022-10-22T08:36:54;5.95;;;1.20;;
27225;SDS011;14732;51.074;3.788;2022-10-22T08:39:20;5.68;;;1.48;;
27225;SDS011;14732;51.074;3.788;2022-10-22T08:44:27;5.90;;;1.65;;
27225;SDS011;14732;51.074;3.788;2022-10-22T08:49:35;7.78;;;1.30;;
27225;SDS011;14732;51.074;3.788;2022-10-22T08:52:03;6.25;;;1.20;;
27225;SDS011;14732;51.074;3.788;2022-10-22T08:54:34;5.60;;;1.30;;
27225;SDS011;14732;51.074;3.788;2022-10-22T08:59:42;7.35;;;1.65;;
27225;SDS011;14732;51.074;3.788;2022-10-22T09:02:36;5.18;;;1.38;;
27225;SDS011;14732;51.074;3.788;2022-10-22T09:07:55;6.32;;;1.48;;
27225;SDS011;14732;51.074;3.788;2022-10-22T09:10:23;7.22;;;1.38;;
27225;SDS011;14732;51.074;3.788;2022-10-22T09:12:53;8.10;;;1.60;;
27225;SDS011;14732;51.074;3.788;2022-10-22T09:15:19;9.70;;;1.35;;
27225;SDS011;14732;51.074;3.788;2022-10-22T09:20:20;7.53;;;1.52;;
27225;SDS011;14732;51.074;3.788;2022-10-22T09:25:30;7.13;;;1.70;;
27225;SDS011;14732;51.074;3.788;2022-10-22T09:27:59;14.80;;;1.70;;
27225;SDS011;14732;51.074;3.788;2022-10-22T09:30:26;11.02;;;1.80;;
27225;SDS011;14732;51.074;3.788;2022-10-22T09:32:58;9.80;;;1.40;;
27225;SDS011;14732;51.074;3.788;2022-10-22T09:35:25;13.13;;;2.05;;
27225;SDS011;14732;51.074;3.788;2022-10-22T09:37:54;10.75;;;2.10;;
27225;SDS011;14732;51.074;3.788;2022-10-22T09:40:21;10.38;;;1.73;;
27225;SDS011;14732;51.074;3.788;2022-10-22T09:42:47;9.52;;;1.88;;
27225;SDS011;14732;51.074;3.788;2022-10-22T09:45:18;10.02;;;1.92;;
27225;SDS011;14732;51.074;3.788;2022-10-22T09:47:47;10.85;;;2.35;;
27225;SDS011;14732;51.074;3.788;2022-10-22T09:52:44;11.07;;;2.13;;
27225;SDS011;14732;51.074;3.788;2022-10-22T09:55:19;10.75;;;2.28;;
27225;SDS011;14732;51.074;3.788;2022-10-22T09:57:52;10.18;;;1.80;;
27225;SDS011;14732;51.074;3.788;2022-10-22T10:00:20;9.20;;;1.63;;
27225;SDS011;14732;51.074;3.788;2022-10-22T10:02:52;7.97;;;1.77;;
27225;SDS011;14732;51.074;3.788;2022-10-22T10:05:29;9.32;;;1.70;;
27225;SDS011;14732;51.074;3.788;2022-10-22T10:07:56;9.45;;;1.88;;
27225;SDS011;14732;51.074;3.788;2022-10-22T10:13:20;8.30;;;1.77;;
27225;SDS011;14732;51.074;3.788;2022-10-22T10:15:55;12.43;;;2.00;;
27225;SDS011;14732;51.074;3.788;2022-10-22T10:21:19;9.90;;;1.88;;
27225;SDS011;14732;51.074;3.788;2022-10-22T10:29:38;8.23;;;1.60;;
27225;SDS011;14732;51.074;3.788;2022-10-22T10:37:33;12.88;;;1.70;;
27225;SDS011;14732;51.074;3.788;2022-10-22T10:40:30;6.15;;;1.42;;
27225;SDS011;14732;51.074;3.788;2022-10-22T10:43:05;14.57;;;1.63;;
27225;SDS011;14732;51.074;3.788;2022-10-22T10:48:43;9.38;;;1.80;;
27225;SDS011;14732;51.074;3.788;2022-10-22T10:51:36;13.18;;;1.63;;
27225;SDS011;14732;51.074;3.788;2022-10-22T10:54:17;5.72;;;1.67;;
27225;SDS011;14732;51.074;3.788;2022-10-22T10:57:12;9.30;;;1.52;;
27225;SDS011;14732;51.074;3.788;2022-10-22T11:05:53;8.15;;;1.67;;
27225;SDS011;14732;51.074;3.788;2022-10-22T11:08:27;14.82;;;1.52;;
27225;SDS011;14732;51.074;3.788;2022-10-22T11:16:31;7.35;;;1.15;;
27225;SDS011;14732;51.074;3.788;2022-10-22T11:19:22;10.80;;;1.63;;
27225;SDS011;14732;51.074;3.788;2022-10-22T11:27:30;5.85;;;1.38;;
27225;SDS011;14732;51.074;3.788;2022-10-22T11:30:16;8.85;;;1.90;;
27225;SDS011;14732;51.074;3.788;2022-10-22T11:32:45;13.13;;;1.63;;
27225;SDS011;14732;51.074;3.788;2022-10-22T11:35:17;11.20;;;1.88;;
27225;SDS011;14732;51.074;3.788;2022-10-22T11:37:48;8.80;;;1.73;;
27225;SDS011;14732;51.074;3.788;2022-10-22T11:40:15;9.43;;;1.58;;
27225;SDS011;14732;51.074;3.788;2022-10-22T11:42:45;10.30;;;1.83;;
27225;SDS011;14732;51.074;3.788;2022-10-22T11:50:55;7.90;;;1.60;;
27225;SDS011;14732;51.074;3.788;2022-10-22T11:55:50;9.38;;;1.98;;
27225;SDS011;14732;51.074;3.788;2022-10-22T12:08:43;10.50;;;1.55;;
27225;SDS011;14732;51.074;3.788;2022-10-22T12:11:34;10.18;;;1.60;;
27225;SDS011;14732;51.074;3.788;2022-10-22T12:14:16;6.57;;;1.48;;
27225;SDS011;14732;51.074;3.788;2022-10-22T12:19:45;9.43;;;1.80;;
27225;SDS011;14732;51.074;3.788;2022-10-22T12:22:20;13.27;;;1.70;;
27225;SDS011;14732;51.074;3.788;2022-10-22T12:24:47;7.22;;;1.25;;
27225;SDS011;14732;51.074;3.788;2022-10-22T12:27:40;9.48;;;1.50;;
27225;SDS011;14732;51.074;3.788;2022-10-22T12:30:16;9.93;;;1.50;;
27225;SDS011;14732;51.074;3.788;2022-10-22T12:32:42;5.95;;;1.27;;
27225;SDS011;14732;51.074;3.788;2022-10-22T12:35:13;7.70;;;1.25;;
27225;SDS011;14732;51.074;3.788;2022-10-22T12:37:42;9.48;;;1.05;;
27225;SDS011;14732;51.074;3.788;2022-10-22T12:40:18;6.55;;;1.30;;
27225;SDS011;14732;51.074;3.788;2022-10-22T12:43:27;8.75;;;1.40;;
27225;SDS011;14732;51.074;3.788;2022-10-22T12:45:37;7.15;;;1.20;;
27225;SDS011;14732;51.074;3.788;2022-10-22T12:48:05;5.22;;;0.98;;
27225;SDS011;14732;51.074;3.788;2022-10-22T12:50:39;5.38;;;1.15;;
27225;SDS011;14732;51.074;3.788;2022-10-22T12:53:21;7.60;;;0.98;;
27225;SDS011;14732;51.074;3.788;2022-10-22T12:55:53;6.78;;;1.02;;
27225;SDS011;14732;51.074;3.788;2022-10-22T12:58:26;10.07;;;1.05;;
27225;SDS011;14732;51.074;3.788;2022-10-22T13:00:56;7.13;;;1.10;;
27225;SDS011;14732;51.074;3.788;2022-10-22T13:03:30;7.10;;;1.08;;
27225;SDS011;14732;51.074;3.788;2022-10-22T13:08:37;10.38;;;1.15;;
27225;SDS011;14732;51.074;3.788;2022-10-22T13:11:07;4.85;;;1.13;;
27225;SDS011;14732;51.074;3.788;2022-10-22T13:18:38;8.70;;;1.20;;
27225;SDS011;14732;51.074;3.788;2022-10-22T13:21:04;7.65;;;1.33;;
27225;SDS011;14732;51.074;3.788;2022-10-22T13:23:31;7.40;;;1.20;;
27225;SDS011;14732;51.074;3.788;2022-10-22T13:25:59;7.55;;;1.40;;
27225;SDS011;14732;51.074;3.788;2022-10-22T13:28:35;7.35;;;1.30;;
27225;SDS011;14732;51.074;3.788;2022-10-22T13:31:15;11.05;;;1.20;;
27225;SDS011;14732;51.074;3.788;2022-10-22T13:33:50;4.10;;;1.00;;
27225;SDS011;14732;51.074;3.788;2022-10-22T13:36:18;5.00;;;1.15;;
27225;SDS011;14732;51.074;3.788;2022-10-22T13:38:44;4.93;;;1.00;;
27225;SDS011;14732;51.074;3.788;2022-10-22T13:41:17;7.25;;;1.35;;
27225;SDS011;14732;51.074;3.788;2022-10-22T13:43:43;8.45;;;1.20;;
27225;SDS011;14732;51.074;3.788;2022-10-22T13:46:09;5.70;;;1.35;;
27225;SDS011;14732;51.074;3.788;2022-10-22T13:48:35;4.43;;;0.80;;
27225;SDS011;14732;51.074;3.788;2022-10-22T13:51:01;6.38;;;1.15;;
27225;SDS011;14732;51.074;3.788;2022-10-22T13:53:28;6.75;;;1.20;;
27225;SDS011;14732;51.074;3.788;2022-10-22T13:55:55;9.15;;;1.48;;
27225;SDS011;14732;51.074;3.788;2022-10-22T13:58:21;4.18;;;1.08;;
27225;SDS011;14732;51.074;3.788;2022-10-22T14:00:53;7.25;;;1.05;;
27225;SDS011;14732;51.074;3.788;2022-10-22T14:03:22;4.57;;;1.08;;
27225;SDS011;14732;51.074;3.788;2022-10-22T14:05:54;4.90;;;1.10;;
27225;SDS011;14732;51.074;3.788;2022-10-22T14:08:21;7.50;;;1.27;;
27225;SDS011;14732;51.074;3.788;2022-10-22T14:10:48;6.10;;;1.30;;
27225;SDS011;14732;51.074;3.788;2022-10-22T14:13:14;6.15;;;1.20;;
27225;SDS011;14732;51.074;3.788;2022-10-22T14:15:42;5.70;;;1.23;;
27225;SDS011;14732;51.074;3.788;2022-10-22T14:18:11;5.80;;;0.97;;
27225;SDS011;14732;51.074;3.788;2022-10-22T14:20:40;6.40;;;1.02;;
27225;SDS011;14732;51.074;3.788;2022-10-22T14:23:18;3.70;;;0.93;;
27225;SDS011;14732;51.074;3.788;2022-10-22T14:25:45;6.25;;;1.08;;
27225;SDS011;14732;51.074;3.788;2022-10-22T14:28:11;8.55;;;1.48;;
27225;SDS011;14732;51.074;3.788;2022-10-22T14:30:37;6.72;;;1.17;;
27225;SDS011;14732;51.074;3.788;2022-10-22T14:33:20;6.93;;;1.10;;
27225;SDS011;14732;51.074;3.788;2022-10-22T14:35:49;4.75;;;1.25;;
27225;SDS011;14732;51.074;3.788;2022-10-22T14:38:16;6.22;;;1.25;;
27225;SDS011;14732;51.074;3.788;2022-10-22T14:40:42;7.60;;;0.90;;
27225;SDS011;14732;51.074;3.788;2022-10-22T14:45:50;4.82;;;0.98;;
27225;SDS011;14732;51.074;3.788;2022-10-22T14:48:16;5.47;;;1.08;;
27225;SDS011;14732;51.074;3.788;2022-10-22T14:50:42;4.10;;;1.00;;
27225;SDS011;14732;51.074;3.788;2022-10-22T14:53:08;4.72;;;1.10;;
27225;SDS011;14732;51.074;3.788;2022-10-22T14:55:34;4.28;;;1.13;;
27225;SDS011;14732;51.074;3.788;2022-10-22T14:58:00;8.48;;;0.98;;
27225;SDS011;14732;51.074;3.788;2022-10-22T15:00:26;6.63;;;1.42;;
27225;SDS011;14732;51.074;3.788;2022-10-22T15:02:51;3.97;;;1.17;;
27225;SDS011;14732;51.074;3.788;2022-10-22T15:05:19;9.65;;;1.13;;
27225;SDS011;14732;51.074;3.788;2022-10-22T15:07:45;4.60;;;0.95;;
27225;SDS011;14732;51.074;3.788;2022-10-22T15:10:11;8.77;;;1.45;;
27225;SDS011;14732;51.074;3.788;2022-10-22T15:12:37;6.00;;;1.15;;
27225;SDS011;14732;51.074;3.788;2022-10-22T15:15:03;6.40;;;0.98;;
27225;SDS011;14732;51.074;3.788;2022-10-22T15:17:30;7.28;;;1.20;;
27225;SDS011;14732;51.074;3.788;2022-10-22T15:19:55;4.72;;;1.35;;
27225;SDS011;14732;51.074;3.788;2022-10-22T15:22:24;6.68;;;1.10;;
27225;SDS011;14732;51.074;3.788;2022-10-22T15:24:50;11.30;;;1.63;;
27225;SDS011;14732;51.074;3.788;2022-10-22T15:27:17;5.03;;;1.10;;
27225;SDS011;14732;51.074;3.788;2022-10-22T15:29:43;8.60;;;1.15;;
27225;SDS011;14732;51.074;3.788;2022-10-22T15:32:09;5.18;;;1.20;;
27225;SDS011;14732;51.074;3.788;2022-10-22T15:34:35;5.88;;;1.17;;
27225;SDS011;14732;51.074;3.788;2022-10-22T15:37:03;6.32;;;1.17;;
27225;SDS011;14732;51.074;3.788;2022-10-22T15:39:31;5.43;;;1.00;;
27225;SDS011;14732;51.074;3.788;2022-10-22T15:41:57;7.93;;;1.40;;
27225;SDS011;14732;51.074;3.788;2022-10-22T15:44:24;6.07;;;1.08;;
27225;SDS011;14732;51.074;3.788;2022-10-22T15:46:52;6.63;;;1.00;;
27225;SDS011;14732;51.074;3.788;2022-10-22T15:49:21;5.47;;;0.90;;
27225;SDS011;14732;51.074;3.788;2022-10-22T15:51:50;6.00;;;1.02;;
27225;SDS011;14732;51.074;3.788;2022-10-22T15:54:17;7.07;;;1.40;;
27225;SDS011;14732;51.074;3.788;2022-10-22T15:56:44;8.15;;;1.30;;
27225;SDS011;14732;51.074;3.788;2022-10-22T15:59:10;7.53;;;1.88;;
27225;SDS011;14732;51.074;3.788;2022-10-22T16:01:37;5.13;;;1.10;;
27225;SDS011;14732;51.074;3.788;2022-10-22T16:04:04;5.47;;;1.33;;
27225;SDS011;14732;51.074;3.788;2022-10-22T16:06:41;4.88;;;1.40;;
27225;SDS011;14732;51.074;3.788;2022-10-22T16:09:10;10.55;;;1.20;;
27225;SDS011;14732;51.074;3.788;2022-10-22T16:14:04;8.98;;;1.30;;
27225;SDS011;14732;51.074;3.788;2022-10-22T16:16:32;6.07;;;1.52;;
27225;SDS011;14732;51.074;3.788;2022-10-22T16:18:59;9.60;;;2.03;;
27225;SDS011;14732;51.074;3.788;2022-10-22T16:21:25;5.30;;;1.58;;
27225;SDS011;14732;51.074;3.788;2022-10-22T16:23:51;7.85;;;1.58;;
27225;SDS011;14732;51.074;3.788;2022-10-22T16:26:17;11.13;;;1.40;;
27225;SDS011;14732;51.074;3.788;2022-10-22T16:28:44;7.15;;;1.42;;
27225;SDS011;14732;51.074;3.788;2022-10-22T16:31:12;13.15;;;1.90;;
27225;SDS011;14732;51.074;3.788;2022-10-22T16:33:40;10.30;;;1.50;;
27225;SDS011;14732;51.074;3.788;2022-10-22T16:36:10;6.07;;;1.35;;
27225;SDS011;14732;51.074;3.788;2022-10-22T16:38:37;10.77;;;1.67;;
27225;SDS011;14732;51.074;3.788;2022-10-22T16:41:36;8.05;;;1.48;;
27225;SDS011;14732;51.074;3.788;2022-10-22T16:43:59;11.32;;;1.60;;
27225;SDS011;14732;51.074;3.788;2022-10-22T16:46:28;12.63;;;1.83;;
27225;SDS011;14732;51.074;3.788;2022-10-22T16:48:54;9.40;;;1.35;;
27225;SDS011;14732;51.074;3.788;2022-10-22T16:51:21;12.05;;;1.33;;
27225;SDS011;14732;51.074;3.788;2022-10-22T16:53:51;12.35;;;1.60;;
27225;SDS011;14732;51.074;3.788;2022-10-22T16:56:18;11.25;;;2.08;;
27225;SDS011;14732;51.074;3.788;2022-10-22T16:58:51;10.00;;;1.73;;
27225;SDS011;14732;51.074;3.788;2022-10-22T17:01:19;17.98;;;1.63;;